createdAt,value
2019-02-22T00:01:22.359Z,8.32
2019-02-22T00:03:53.657Z,8.31
2019-02-22T00:06:25.113Z,8.40
2019-02-22T00:08:57.651Z,8.42
2019-02-22T00:11:28.921Z,8.38
2019-02-22T00:14:00.600Z,8.41
2019-02-22T00:16:32.509Z,8.45
2019-02-22T00:19:04.172Z,8.44
2019-02-22T00:21:35.517Z,8.38
2019-02-22T00:24:06.823Z,8.50
2019-02-22T00:26:38.722Z,8.49
2019-02-22T00:29:29.196Z,8.48
2019-02-22T00:32:00.414Z,8.54
2019-02-22T00:34:31.896Z,8.47
2019-02-22T00:37:03.198Z,8.50
2019-02-22T00:39:40.552Z,8.59
2019-02-22T00:42:11.984Z,8.56
2019-02-22T00:44:43.909Z,8.48
2019-02-22T00:47:15.263Z,8.51
2019-02-22T00:49:46.683Z,8.46
2019-02-22T00:52:19.500Z,8.48
2019-02-22T00:54:52.945Z,8.41
2019-02-22T00:57:24.691Z,8.50
2019-02-22T00:59:57.269Z,8.47
2019-02-22T01:02:28.546Z,8.45
2019-02-22T01:04:59.939Z,8.47
2019-02-22T01:07:31.216Z,8.47
2019-02-22T01:10:02.451Z,8.46
2019-02-22T01:12:33.799Z,8.44
2019-02-22T01:15:05.792Z,8.40
2019-02-22T01:17:37.591Z,8.45
2019-02-22T01:20:09.332Z,8.45
2019-02-22T01:22:40.706Z,8.53
2019-02-22T01:25:11.990Z,8.59
2019-02-22T01:27:44.362Z,8.53
2019-02-22T01:30:15.848Z,8.03
2019-02-22T01:32:47.180Z,7.76
2019-02-22T01:35:18.934Z,7.58
2019-02-22T01:37:50.265Z,7.39
2019-02-22T01:40:21.622Z,7.21
2019-02-22T01:42:52.871Z,7.26
2019-02-22T01:45:24.145Z,7.18
2019-02-22T01:47:55.812Z,7.15
2019-02-22T01:50:28.477Z,7.04
2019-02-22T01:53:00.110Z,7.04
2019-02-22T01:55:31.667Z,6.99
2019-02-22T01:58:02.914Z,6.99
2019-02-22T02:00:34.232Z,7.02
2019-02-22T02:03:05.589Z,6.99
2019-02-22T02:05:37.004Z,6.95
2019-02-22T02:08:11.384Z,6.96
2019-02-22T02:10:53.674Z,6.95
2019-02-22T02:13:16.516Z,6.96
2019-02-22T02:15:48.305Z,6.91
2019-02-22T02:18:19.945Z,6.94
2019-02-22T02:20:51.791Z,6.95
2019-02-22T02:23:23.062Z,6.89
2019-02-22T02:25:54.819Z,6.83
2019-02-22T02:28:26.553Z,6.80
2019-02-22T02:30:58.413Z,6.62
2019-02-22T02:33:30.082Z,6.69
2019-02-22T02:36:01.385Z,6.66
2019-02-22T02:38:33.049Z,6.68
2019-02-22T02:41:08.457Z,6.53
2019-02-22T02:43:37.328Z,6.54
2019-02-22T02:46:09.124Z,6.52
2019-02-22T02:48:40.309Z,6.63
2019-02-22T02:51:11.661Z,6.46
2019-02-22T02:53:42.912Z,6.53
2019-02-22T02:56:14.280Z,6.54
2019-02-22T02:58:45.617Z,6.44
2019-02-22T03:01:17.046Z,6.52
2019-02-22T03:03:48.311Z,6.44
2019-02-22T03:06:34.046Z,6.39
2019-02-22T03:09:06.479Z,6.40
2019-02-22T03:11:39.558Z,6.52
2019-02-22T03:14:10.822Z,6.48
2019-02-22T03:16:42.515Z,6.53
2019-02-22T03:19:13.776Z,6.55
2019-02-22T03:21:45.069Z,6.62
2019-02-22T03:24:17.200Z,6.58
2019-02-22T03:26:49.231Z,6.61
2019-02-22T03:29:20.520Z,6.60
2019-02-22T03:31:51.731Z,6.64
2019-02-22T03:34:23.698Z,6.69
2019-02-22T03:36:54.998Z,6.44
2019-02-22T03:39:26.193Z,6.21
2019-02-22T03:41:57.847Z,6.16
2019-02-22T03:44:29.489Z,6.06
2019-02-22T03:47:00.857Z,5.98
2019-02-22T03:49:32.124Z,6.00
2019-02-22T03:52:22.184Z,5.88
2019-02-22T03:54:53.630Z,6.00
2019-02-22T03:57:25.277Z,5.70
2019-02-22T03:59:57.026Z,5.80
2019-02-22T04:02:28.679Z,5.85
2019-02-22T04:05:00.029Z,5.72
2019-02-22T04:07:32.010Z,5.81
2019-02-22T04:10:03.940Z,5.83
2019-02-22T04:12:35.334Z,5.83
2019-02-22T04:15:07.279Z,5.92
2019-02-22T04:17:38.591Z,5.97
2019-02-22T04:20:10.112Z,5.94
2019-02-22T04:22:44.229Z,5.87
2019-02-22T04:25:14.355Z,5.82
2019-02-22T04:27:45.616Z,5.86
2019-02-22T04:30:16.891Z,5.93
2019-02-22T04:32:48.126Z,5.88
2019-02-22T04:35:19.798Z,5.79
2019-02-22T04:37:51.235Z,5.73
2019-02-22T04:40:23.036Z,5.68
2019-02-22T04:42:54.916Z,5.72
2019-02-22T04:45:26.189Z,5.68
2019-02-22T04:47:57.463Z,5.61
2019-02-22T04:50:28.694Z,5.61
2019-02-22T04:52:59.979Z,5.58
2019-02-22T04:55:31.322Z,5.46
2019-02-22T04:58:02.779Z,5.40
2019-02-22T05:00:34.604Z,5.43
2019-02-22T05:03:06.464Z,5.41
2019-02-22T05:05:37.747Z,5.36
2019-02-22T05:08:09.049Z,5.49
2019-02-22T05:10:40.253Z,5.53
2019-02-22T05:13:11.545Z,5.44
2019-02-22T05:15:42.879Z,5.50
2019-02-22T05:18:14.244Z,5.53
2019-02-22T05:20:45.826Z,5.46
2019-02-22T05:23:17.433Z,5.42
2019-02-22T05:25:49.512Z,5.55
2019-02-22T05:28:20.766Z,5.47
2019-02-22T05:30:51.933Z,5.48
2019-02-22T05:33:23.283Z,5.50
2019-02-22T05:35:54.445Z,5.33
2019-02-22T05:38:26.301Z,5.36
2019-02-22T05:40:57.996Z,5.44
2019-02-22T05:43:29.281Z,5.41
2019-02-22T05:46:00.866Z,5.23
2019-02-22T05:48:32.854Z,5.12
2019-02-22T05:51:04.170Z,5.10
2019-02-22T05:53:35.575Z,5.17
2019-02-22T05:56:08.339Z,5.25
2019-02-22T05:58:39.607Z,5.17
2019-02-22T06:01:10.953Z,5.15
2019-02-22T06:03:43.116Z,5.27
2019-02-22T06:06:14.836Z,5.25
2019-02-22T06:08:47.322Z,5.16
2019-02-22T06:11:19.781Z,5.12
2019-02-22T06:13:51.508Z,5.12
2019-02-22T06:16:24.456Z,5.18
2019-02-22T06:18:57.155Z,5.19
2019-02-22T06:21:28.661Z,5.15
2019-02-22T06:24:02.715Z,5.06
2019-02-22T06:26:33.287Z,5.18
2019-02-22T06:29:05.715Z,5.22
2019-02-22T06:31:37.022Z,5.17
2019-02-22T06:34:08.536Z,5.13
2019-02-22T06:36:39.848Z,5.04
2019-02-22T06:39:11.095Z,5.19
2019-02-22T06:41:42.747Z,5.13
2019-02-22T06:44:14.551Z,5.10
2019-02-22T06:46:45.823Z,5.01
2019-02-22T06:49:17.142Z,4.85
2019-02-22T06:51:48.563Z,4.90
2019-02-22T06:54:20.617Z,4.82
2019-02-22T06:56:53.065Z,4.85
2019-02-22T06:59:25.572Z,4.86
2019-02-22T07:01:57.401Z,4.93
2019-02-22T07:04:28.709Z,4.91
2019-02-22T07:06:59.924Z,4.84
2019-02-22T07:09:31.644Z,4.97
2019-02-22T07:12:13.197Z,5.05
2019-02-22T07:14:47.526Z,5.01
2019-02-22T07:17:18.985Z,4.97
2019-02-22T07:19:50.613Z,5.09
2019-02-22T07:22:21.988Z,5.16
2019-02-22T07:24:53.313Z,4.97
2019-02-22T07:27:24.988Z,4.98
2019-02-22T07:29:56.680Z,4.94
2019-02-22T07:32:28.195Z,4.89
2019-02-22T07:34:59.511Z,4.98
2019-02-22T07:37:31.315Z,5.07
2019-02-22T07:40:02.923Z,5.12
2019-02-22T07:42:34.811Z,5.16
2019-02-22T07:45:08.232Z,5.35
2019-02-22T07:47:39.596Z,5.22
2019-02-22T07:50:12.344Z,5.28
2019-02-22T07:52:45.296Z,5.30
2019-02-22T07:55:16.644Z,5.19
2019-02-22T07:57:48.780Z,5.15
2019-02-22T08:00:21.037Z,5.08
2019-02-22T08:02:52.339Z,5.20
2019-02-22T08:05:23.763Z,5.19
2019-02-22T08:07:55.172Z,5.17
2019-02-22T08:10:27.375Z,5.13
2019-02-22T08:12:58.788Z,5.04
2019-02-22T08:15:30.648Z,4.99
2019-02-22T08:18:03.803Z,4.92
2019-02-22T08:20:36.104Z,4.94
2019-02-22T08:23:07.995Z,4.92
2019-02-22T08:25:39.537Z,4.97
2019-02-22T08:28:11.368Z,5.05
2019-02-22T08:30:43.008Z,5.09
2019-02-22T08:33:14.583Z,5.05
2019-02-22T08:35:46.182Z,4.86
2019-02-22T08:38:18.005Z,4.90
2019-02-22T08:40:50.170Z,4.84
2019-02-22T08:43:31.584Z,4.87
2019-02-22T08:45:57.970Z,4.95
2019-02-22T08:48:31.548Z,4.83
2019-02-22T08:51:23.834Z,4.78
2019-02-22T08:53:55.745Z,4.77
2019-02-22T08:56:27.394Z,4.62
2019-02-22T08:58:59.375Z,4.64
2019-02-22T09:01:30.908Z,4.67
2019-02-22T09:04:02.744Z,4.69
2019-02-22T09:06:34.665Z,4.84
2019-02-22T09:09:06.474Z,4.80
2019-02-22T09:11:38.455Z,4.78
2019-02-22T09:14:11.092Z,4.83
2019-02-22T09:16:43.149Z,4.94
2019-02-22T09:19:15.195Z,5.13
2019-02-22T09:21:46.714Z,5.07
2019-02-22T09:24:18.527Z,4.89
2019-02-22T09:26:50.331Z,4.80
2019-02-22T09:29:22.218Z,4.84
2019-02-22T09:31:54.458Z,4.96
2019-02-22T09:34:25.877Z,4.91
2019-02-22T09:36:59.093Z,4.93
2019-02-22T09:39:30.705Z,5.01
2019-02-22T09:42:02.034Z,5.03
2019-02-22T09:44:33.381Z,5.05
2019-02-22T09:47:04.657Z,4.92
2019-02-22T09:49:35.901Z,4.89
2019-02-22T09:52:07.647Z,4.88
2019-02-22T09:54:38.930Z,4.75
2019-02-22T09:57:10.211Z,4.96
2019-02-22T09:59:41.903Z,5.10
2019-02-22T10:02:16.453Z,5.07
2019-02-22T10:04:55.525Z,4.88
2019-02-22T10:07:27.631Z,4.89
2019-02-22T10:09:59.905Z,4.93
2019-02-22T10:12:31.660Z,4.98
2019-02-22T10:15:02.948Z,5.08
2019-02-22T10:17:35.701Z,5.19
2019-02-22T10:20:07.233Z,5.15
2019-02-22T10:22:38.536Z,5.09
2019-02-22T10:25:09.883Z,5.11
2019-02-22T10:27:41.305Z,5.25
2019-02-22T10:31:41.465Z,5.46
2019-02-22T10:34:13.770Z,5.55
2019-02-22T10:36:45.673Z,5.60
2019-02-22T10:39:17.207Z,5.41
2019-02-22T10:41:48.708Z,5.41
2019-02-22T10:44:20.335Z,5.63
2019-02-22T10:46:52.295Z,5.49
2019-02-22T10:49:23.552Z,5.62
2019-02-22T10:51:54.855Z,5.61
2019-02-22T10:54:26.691Z,5.72
2019-02-22T10:56:57.991Z,5.58
2019-02-22T10:59:29.346Z,5.70
2019-02-22T11:02:01.084Z,5.70
2019-02-22T11:04:32.653Z,5.69
2019-02-22T11:07:03.848Z,5.80
2019-02-22T11:09:35.251Z,5.89
2019-02-22T11:12:06.763Z,5.67
2019-02-22T11:14:39.859Z,5.67
2019-02-22T11:17:11.306Z,5.75
2019-02-22T11:19:44.639Z,5.78
2019-02-22T11:23:21.279Z,5.82
2019-02-22T11:25:53.298Z,5.79
2019-02-22T11:28:24.904Z,5.77
2019-02-22T11:30:56.559Z,5.78
2019-02-22T11:33:43.797Z,5.94
2019-02-22T11:36:16.223Z,5.96
2019-02-22T11:38:47.493Z,5.92
2019-02-22T11:41:19.170Z,6.15
2019-02-22T11:43:50.640Z,5.98
2019-02-22T11:46:22.041Z,6.16
2019-02-22T11:48:53.878Z,5.87
2019-02-22T11:51:25.389Z,5.80
2019-02-22T11:53:57.672Z,5.86
2019-02-22T11:56:29.744Z,5.96
2019-02-22T11:59:01.290Z,5.99
2019-02-22T12:01:51.707Z,6.08
2019-02-22T12:04:23.110Z,6.07
2019-02-22T12:06:54.396Z,6.20
2019-02-22T12:09:26.253Z,6.16
2019-02-22T12:11:58.530Z,6.24
2019-02-22T12:14:30.627Z,6.17
2019-02-22T12:17:02.864Z,6.13
2019-02-22T12:21:19.817Z,6.49
2019-02-22T12:23:52.964Z,6.53
2019-02-22T12:29:15.320Z,6.57
2019-02-22T12:31:46.878Z,6.74
2019-02-22T12:34:21.201Z,6.64
2019-02-22T12:36:54.184Z,6.42
2019-02-22T12:39:25.610Z,6.44
2019-02-22T12:41:58.618Z,6.44
2019-02-22T12:44:31.095Z,6.40
2019-02-22T12:47:03.596Z,6.28
2019-02-22T12:49:35.774Z,6.28
2019-02-22T12:52:07.169Z,6.42
2019-02-22T12:54:38.759Z,6.48
2019-02-22T12:57:11.354Z,6.47
2019-02-22T12:59:43.416Z,6.68
2019-02-22T13:02:15.394Z,6.81
2019-02-22T13:04:48.127Z,6.72
2019-02-22T13:07:21.256Z,6.74
2019-02-22T13:09:53.410Z,6.57
2019-02-22T13:12:24.908Z,6.61
2019-02-22T13:14:56.507Z,6.67
2019-02-22T13:17:31.020Z,6.62
2019-02-22T13:20:02.203Z,6.58
2019-02-22T13:22:34.193Z,6.55
2019-02-22T13:25:05.759Z,6.45
2019-02-22T13:27:37.213Z,6.52
2019-02-22T13:30:09.717Z,6.51
2019-02-22T13:32:43.136Z,6.62
2019-02-22T13:35:14.415Z,6.63
2019-02-22T13:37:46.469Z,6.65
2019-02-22T13:40:17.962Z,6.65
2019-02-22T13:42:49.382Z,6.91
2019-02-22T13:45:26.478Z,7.03
2019-02-22T13:47:54.489Z,6.89
2019-02-22T13:50:25.982Z,6.73
2019-02-22T13:52:57.794Z,6.89
2019-02-22T13:55:29.698Z,6.97
2019-02-22T13:58:02.171Z,6.75
2019-02-22T14:00:33.722Z,6.77
2019-02-22T14:03:06.123Z,6.64
2019-02-22T14:05:38.234Z,6.66
2019-02-22T14:08:10.015Z,6.58
2019-02-22T14:10:42.223Z,6.39
2019-02-22T14:13:14.128Z,6.42
2019-02-22T14:15:47.395Z,6.42
2019-02-22T14:18:18.901Z,6.50
2019-02-22T14:20:50.548Z,6.54
2019-02-22T14:23:22.484Z,6.55
2019-02-22T14:25:53.985Z,6.54
2019-02-22T14:28:26.762Z,6.64
2019-02-22T14:30:58.486Z,6.75
2019-02-22T14:33:29.922Z,6.83
2019-02-22T14:36:01.481Z,6.88
2019-02-22T14:38:33.225Z,6.95
2019-02-22T14:41:04.726Z,6.79
2019-02-22T14:43:37.043Z,6.73
2019-02-22T14:46:08.948Z,6.77
2019-02-22T14:48:40.800Z,6.76
2019-02-22T14:51:16.793Z,6.89
2019-02-22T14:53:52.912Z,6.88
2019-02-22T14:56:24.905Z,6.83
2019-02-22T14:58:56.662Z,6.88
2019-02-22T15:01:28.231Z,6.99
2019-02-22T15:03:59.511Z,6.96
2019-02-22T15:06:31.527Z,7.07
2019-02-22T15:09:04.578Z,7.00
2019-02-22T15:11:36.711Z,6.85
2019-02-22T15:14:08.537Z,6.71
2019-02-22T15:16:57.659Z,6.54
2019-02-22T15:19:29.084Z,6.62
2019-02-22T15:22:03.878Z,6.57
2019-02-22T15:24:37.150Z,6.53
2019-02-22T15:27:09.257Z,6.43
2019-02-22T15:29:40.631Z,6.31
2019-02-22T15:32:12.564Z,6.29
2019-02-22T15:34:44.413Z,6.34
2019-02-22T15:37:15.665Z,6.36
2019-02-22T15:39:48.473Z,6.35
2019-02-22T15:42:20.032Z,6.39
2019-02-22T15:44:53.843Z,6.37
2019-02-22T15:47:25.207Z,6.26
2019-02-22T15:49:56.810Z,6.25
2019-02-22T15:52:29.128Z,6.17
2019-02-22T15:55:02.071Z,6.05
2019-02-22T15:57:34.312Z,5.95
2019-02-22T16:00:08.246Z,5.85
2019-02-22T16:02:40.519Z,5.96
2019-02-22T16:05:22.856Z,5.88
2019-02-22T16:07:54.099Z,5.89
2019-02-22T16:10:25.336Z,5.86
2019-02-22T16:12:56.972Z,5.94
2019-02-22T16:15:28.753Z,5.93
2019-02-22T16:18:00.652Z,6.00
2019-02-22T16:20:32.377Z,5.93
2019-02-22T16:23:04.858Z,5.79
2019-02-22T16:25:36.206Z,5.83
2019-02-22T16:28:07.576Z,5.74
2019-02-22T16:30:39.070Z,5.69
2019-02-22T16:33:10.652Z,5.67
2019-02-22T16:35:42.996Z,5.72
2019-02-22T16:38:14.615Z,5.72
2019-02-22T16:40:46.235Z,5.64
2019-02-22T16:43:18.024Z,5.51
2019-02-22T16:45:49.825Z,5.47
2019-02-22T16:48:21.225Z,5.42
2019-02-22T16:50:52.811Z,5.48
2019-02-22T16:53:24.074Z,5.44
2019-02-22T16:55:55.445Z,5.43
2019-02-22T16:58:26.745Z,5.37
2019-02-22T17:00:58.079Z,5.45
2019-02-22T17:03:29.334Z,5.47
2019-02-22T17:06:01.709Z,5.52
2019-02-22T17:08:33.656Z,5.58
2019-02-22T17:11:05.924Z,5.45
2019-02-22T17:13:37.684Z,5.39
2019-02-22T17:16:09.798Z,5.37
2019-02-22T17:18:41.078Z,5.44
2019-02-22T17:21:12.497Z,5.39
2019-02-22T17:23:44.131Z,5.49
2019-02-22T17:26:21.138Z,5.43
2019-02-22T17:28:52.625Z,5.30
2019-02-22T17:31:25.736Z,5.25
2019-02-22T17:33:57.378Z,5.27
2019-02-22T17:36:31.352Z,5.41
2019-02-22T17:39:02.253Z,5.44
2019-02-22T17:41:35.609Z,5.40
2019-02-22T17:44:07.244Z,5.40
2019-02-22T17:46:38.913Z,5.21
2019-02-22T17:49:11.155Z,5.17
2019-02-22T17:51:42.839Z,5.20
2019-02-22T17:54:14.318Z,5.09
2019-02-22T17:56:45.718Z,4.97
2019-02-22T17:59:21.915Z,5.12
2019-02-22T18:01:53.748Z,5.08
2019-02-22T18:04:27.379Z,4.91
2019-02-22T18:06:59.600Z,4.94
2019-02-22T18:09:31.637Z,5.15
2019-02-22T18:12:03.892Z,5.13
2019-02-22T18:14:37.082Z,5.38
2019-02-22T18:17:09.254Z,5.29
2019-02-22T18:19:41.615Z,5.07
2019-02-22T18:22:25.744Z,4.91
2019-02-22T18:24:57.708Z,4.81
2019-02-22T18:27:30.775Z,4.74
2019-02-22T18:30:02.711Z,4.57
2019-02-22T18:32:35.625Z,4.55
2019-02-22T18:35:08.593Z,4.48
2019-02-22T18:37:42.656Z,4.41
2019-02-22T18:40:22.058Z,4.41
2019-02-22T18:42:54.174Z,4.34
2019-02-22T18:48:24.209Z,4.22
2019-02-22T18:50:57.721Z,4.16
2019-02-22T18:53:29.563Z,4.19
2019-02-22T18:56:01.935Z,4.22
2019-02-22T18:58:33.694Z,4.24
2019-02-22T19:01:05.854Z,4.18
2019-02-22T19:03:38.353Z,4.13
2019-02-22T19:06:10.948Z,4.16
2019-02-22T19:08:53.294Z,4.23
2019-02-22T19:11:25.445Z,4.16
2019-02-22T19:13:58.757Z,4.20
2019-02-22T19:16:31.352Z,4.35
2019-02-22T19:19:02.815Z,4.55
2019-02-22T19:21:34.673Z,4.74
2019-02-22T19:24:06.286Z,4.97
2019-02-22T19:26:40.062Z,5.10
2019-02-22T19:29:11.990Z,4.59
2019-02-22T19:31:43.916Z,4.52
2019-02-22T19:34:15.926Z,4.41
2019-02-22T19:36:48.092Z,4.24
2019-02-22T19:39:20.208Z,4.34
2019-02-22T19:41:52.782Z,4.37
2019-02-22T19:44:24.287Z,4.22
2019-02-22T19:46:56.525Z,4.19
2019-02-22T19:49:30.925Z,4.38
2019-02-22T19:52:02.909Z,4.42
2019-02-22T19:54:36.140Z,4.33
2019-02-22T19:57:07.837Z,4.10
2019-02-22T19:59:39.141Z,3.98
2019-02-22T20:02:11.369Z,4.07
2019-02-22T20:04:43.116Z,4.05
2019-02-22T20:07:15.098Z,4.13
2019-02-22T20:09:47.645Z,4.04
2019-02-22T20:12:19.492Z,3.88
2019-02-22T20:14:51.399Z,3.99
2019-02-22T20:17:22.881Z,4.00
2019-02-22T20:19:54.664Z,3.96
2019-02-22T20:22:26.501Z,3.94
2019-02-22T20:24:57.980Z,3.77
2019-02-22T20:27:30.440Z,3.67
2019-02-22T20:30:02.161Z,3.71
2019-02-22T20:32:35.701Z,3.70
2019-02-22T20:35:09.042Z,3.90
2019-02-22T20:37:51.749Z,3.85
2019-02-22T20:40:22.554Z,3.81
2019-02-22T20:42:55.192Z,3.68
2019-02-22T20:45:29.201Z,3.81
2019-02-22T20:48:05.105Z,3.82
2019-02-22T20:50:34.882Z,3.64
2019-02-22T20:53:06.882Z,3.60
2019-02-22T20:55:40.104Z,3.60
2019-02-22T20:58:11.788Z,3.56
2019-02-22T21:00:43.959Z,3.48
2019-02-22T21:03:18.011Z,3.57
2019-02-22T21:05:49.918Z,3.77
2019-02-22T21:08:24.613Z,3.74
2019-02-22T21:10:55.678Z,3.60
2019-02-22T21:13:28.676Z,3.78
2019-02-22T21:16:00.943Z,3.74
2019-02-22T21:18:32.597Z,3.86
2019-02-22T21:21:05.091Z,3.77
2019-02-22T21:23:36.655Z,3.62
2019-02-22T21:26:08.026Z,3.55
2019-02-22T21:28:39.592Z,3.53
2019-02-22T21:31:10.958Z,3.55
2019-02-22T21:33:42.258Z,3.61
2019-02-22T21:36:16.953Z,3.48
2019-02-22T21:38:48.872Z,3.45
2019-02-22T21:41:20.548Z,3.57
2019-02-22T21:43:52.501Z,3.60
2019-02-22T21:46:24.199Z,3.67
2019-02-22T21:48:55.909Z,3.61
2019-02-22T21:51:28.305Z,3.67
2019-02-22T21:54:00.134Z,3.94
2019-02-22T21:56:36.285Z,4.09
2019-02-22T21:59:08.043Z,4.17
2019-02-22T22:01:39.958Z,4.18
2019-02-22T22:04:12.406Z,4.30
2019-02-22T22:06:45.084Z,4.07
2019-02-22T22:09:17.134Z,3.85
2019-02-22T22:11:49.920Z,3.76
2019-02-22T22:14:25.565Z,3.91
2019-02-22T22:16:59.206Z,3.97
2019-02-22T22:19:31.174Z,3.90
2019-02-22T22:22:03.064Z,3.64
2019-02-22T22:24:35.983Z,3.52
2019-02-22T22:27:07.922Z,3.70
2019-02-22T22:29:42.277Z,3.75
2019-02-22T22:32:14.015Z,3.61
2019-02-22T22:34:51.282Z,3.69
2019-02-22T22:37:24.780Z,3.59
2019-02-22T22:39:56.170Z,3.58
2019-02-22T22:42:28.679Z,3.46
2019-02-22T22:45:00.901Z,3.56
2019-02-22T22:47:32.421Z,3.43
2019-02-22T22:52:54.968Z,3.47
2019-02-22T22:55:27.214Z,3.52
2019-02-22T22:57:59.699Z,3.46
2019-02-22T23:01:30.293Z,3.39
2019-02-22T23:04:02.337Z,3.47
2019-02-22T23:06:38.675Z,3.67
2019-02-22T23:09:17.585Z,3.79
2019-02-22T23:11:51.194Z,3.54
2019-02-22T23:14:24.799Z,3.67
2019-02-22T23:16:56.787Z,3.83
2019-02-22T23:19:28.236Z,3.60
2019-02-22T23:22:02.773Z,3.30
2019-02-22T23:27:29.364Z,3.19
2019-02-22T23:30:01.540Z,3.15
2019-02-22T23:32:36.291Z,3.27
2019-02-22T23:35:08.982Z,3.39
2019-02-22T23:37:41.657Z,3.18
2019-02-22T23:40:13.251Z,3.08
2019-02-22T23:42:45.515Z,2.97
2019-02-22T23:45:17.073Z,3.01
2019-02-22T23:48:37.339Z,3.08
2019-02-22T23:51:09.771Z,3.04
2019-02-22T23:53:41.199Z,3.16
2019-02-22T23:56:15.017Z,3.17
2019-02-22T23:58:47.448Z,3.25
